createdAt,value
2018-01-10T00:01:03.014Z,3.75
2018-01-10T00:02:02.829Z,3.76
2018-01-10T00:03:03.177Z,3.71
2018-01-10T00:04:03.221Z,3.74
2018-01-10T00:05:03.937Z,3.66
2018-01-10T00:06:04.048Z,3.67
2018-01-10T00:07:04.074Z,3.6
2018-01-10T00:08:04.077Z,3.64
2018-01-10T00:09:03.761Z,3.66
2018-01-10T00:10:04.088Z,3.61
2018-01-10T00:11:04.135Z,3.61
2018-01-10T00:12:04.130Z,3.61
2018-01-10T00:13:04.136Z,3.61
2018-01-10T00:14:04.146Z,3.61
2018-01-10T00:15:04.228Z,3.61
2018-01-10T00:16:03.936Z,3.53
2018-01-10T00:17:04.392Z,3.63
2018-01-10T00:18:04.583Z,3.58
2018-01-10T00:19:04.360Z,3.53
2018-01-10T00:20:04.688Z,3.51
2018-01-10T00:21:04.377Z,3.51
2018-01-10T00:22:04.864Z,3.54
2018-01-10T00:23:04.876Z,3.48
2018-01-10T00:24:05.697Z,3.48
2018-01-10T00:25:05.761Z,3.45
2018-01-10T00:26:05.489Z,3.42
2018-01-10T00:27:05.678Z,3.46
2018-01-10T00:28:06.425Z,3.51
2018-01-10T00:29:06.149Z,3.39
2018-01-10T00:30:06.597Z,3.35
2018-01-10T00:31:07.318Z,3.4
2018-01-10T00:32:07.550Z,3.39
2018-01-10T00:33:07.777Z,3.4
2018-01-10T00:34:08.070Z,3.42
2018-01-10T00:35:07.802Z,3.39
2018-01-10T00:36:07.734Z,3.35
2018-01-10T00:37:08.010Z,3.35
2018-01-10T00:38:08.205Z,3.35
2018-01-10T00:39:08.667Z,3.3
2018-01-10T00:40:08.674Z,3.16
2018-01-10T00:41:09.023Z,3.21
2018-01-10T00:42:09.532Z,3.2
2018-01-10T00:43:09.877Z,3.23
2018-01-10T00:44:09.584Z,3.17
2018-01-10T00:45:09.738Z,3.01
2018-01-10T00:46:10.460Z,3.08
2018-01-10T00:47:10.102Z,3.01
2018-01-10T00:48:10.559Z,3.02
2018-01-10T00:49:09.720Z,3.01
2018-01-10T00:50:09.910Z,2.91
2018-01-10T00:51:09.733Z,3.01
2018-01-10T00:52:09.910Z,2.85
2018-01-10T00:53:10.422Z,2.81
2018-01-10T00:54:10.448Z,2.83
2018-01-10T00:55:10.972Z,2.81
2018-01-10T00:56:10.639Z,2.76
2018-01-10T00:57:10.976Z,2.69
2018-01-10T00:58:10.542Z,2.72
2018-01-10T00:59:10.961Z,2.7
2018-01-10T01:00:25.614Z,2.69
2018-01-10T01:01:10.732Z,2.7
2018-01-10T01:02:10.933Z,2.69
2018-01-10T01:03:11.927Z,2.63
2018-01-10T01:04:12.051Z,2.69
2018-01-10T01:05:11.907Z,2.66
2018-01-10T01:06:11.744Z,2.65
2018-01-10T01:07:11.532Z,2.67
2018-01-10T01:08:12.366Z,2.59
2018-01-10T01:09:11.811Z,2.62
2018-01-10T01:10:12.034Z,2.59
2018-01-10T01:11:11.933Z,2.62
2018-01-10T01:12:12.387Z,2.6
2018-01-10T01:13:13.091Z,2.73
2018-01-10T01:14:13.105Z,2.8
2018-01-10T01:15:13.285Z,2.83
2018-01-10T01:16:13.733Z,2.81
2018-01-10T01:17:13.769Z,2.9
2018-01-10T01:18:14.056Z,2.85
2018-01-10T01:19:13.868Z,2.88
2018-01-10T01:20:13.575Z,2.87
2018-01-10T01:21:14.402Z,2.87
2018-01-10T01:22:14.042Z,2.87
2018-01-10T01:23:14.076Z,2.83
2018-01-10T01:24:14.547Z,2.83
2018-01-10T01:25:14.730Z,2.81
2018-01-10T01:26:14.929Z,2.7
2018-01-10T01:27:15.379Z,2.67
2018-01-10T01:28:15.796Z,2.54
2018-01-10T01:29:16.244Z,2.59
2018-01-10T01:30:16.330Z,2.47
2018-01-10T01:31:16.294Z,2.47
2018-01-10T01:32:16.253Z,2.4
2018-01-10T01:33:16.340Z,2.38
2018-01-10T01:34:16.767Z,2.34
2018-01-10T01:35:17.237Z,2.33
2018-01-10T01:36:17.421Z,2.3
2018-01-10T01:37:17.448Z,2.27
2018-01-10T01:38:17.164Z,2.2
2018-01-10T01:39:17.442Z,2.12
2018-01-10T01:40:17.894Z,2.08
2018-01-10T01:41:17.681Z,2.13
2018-01-10T01:42:17.952Z,2.12
2018-01-10T01:43:18.376Z,2.12
2018-01-10T01:44:18.270Z,2.11
2018-01-10T01:45:18.586Z,2.12
2018-01-10T01:46:19.026Z,2.05
2018-01-10T01:47:19.029Z,2.01
2018-01-10T01:48:19.542Z,1.89
2018-01-10T01:49:19.440Z,1.97
2018-01-10T01:50:19.736Z,1.86
2018-01-10T01:51:19.492Z,1.9
2018-01-10T01:52:19.771Z,1.82
2018-01-10T01:53:19.540Z,1.78
2018-01-10T01:54:19.563Z,1.69
2018-01-10T01:55:19.854Z,1.69
2018-01-10T01:56:19.591Z,1.79
2018-01-10T01:57:20.048Z,1.72
2018-01-10T01:58:20.353Z,1.72
2018-01-10T01:59:20.376Z,1.72
2018-01-10T02:00:25.627Z,1.78
2018-01-10T02:01:25.115Z,1.78
2018-01-10T02:02:25.514Z,1.84
2018-01-10T02:03:25.267Z,1.83
2018-01-10T02:04:25.688Z,1.79
2018-01-10T02:05:26.104Z,1.76
2018-01-10T02:06:26.313Z,1.64
2018-01-10T02:07:26.287Z,1.64
2018-01-10T02:08:26.327Z,1.64
2018-01-10T02:09:26.431Z,1.58
2018-01-10T02:10:26.281Z,1.57
2018-01-10T02:11:27.013Z,1.58
2018-01-10T02:12:26.737Z,1.54
2018-01-10T02:13:26.987Z,1.6
2018-01-10T02:14:27.400Z,1.57
2018-01-10T02:15:27.330Z,1.69
2018-01-10T02:16:27.379Z,1.76
2018-01-10T02:17:27.364Z,1.76
2018-01-10T02:18:27.384Z,1.72
2018-01-10T02:19:28.028Z,1.76
2018-01-10T02:20:28.406Z,1.76
2018-01-10T02:21:28.257Z,1.72
2018-01-10T02:22:28.704Z,1.87
2018-01-10T02:23:28.680Z,1.89
2018-01-10T02:24:28.719Z,1.9
2018-01-10T02:25:29.143Z,1.93
2018-01-10T02:26:29.922Z,1.9
2018-01-10T02:27:29.647Z,1.93
2018-01-10T02:28:30.034Z,1.92
2018-01-10T02:29:29.775Z,1.94
2018-01-10T02:30:29.786Z,1.89
2018-01-10T02:31:29.785Z,1.94
2018-01-10T02:32:29.739Z,1.93
2018-01-10T02:33:29.546Z,1.93
2018-01-10T02:34:29.612Z,2.06
2018-01-10T02:35:29.672Z,2.06
2018-01-10T02:36:30.088Z,2.04
2018-01-10T02:37:29.940Z,2.09
2018-01-10T02:38:30.207Z,2.05
2018-01-10T02:39:30.054Z,2.22
2018-01-10T02:40:30.416Z,2.2
2018-01-10T02:41:30.223Z,2.2
2018-01-10T02:42:30.545Z,2.18
2018-01-10T02:43:30.450Z,2.2
2018-01-10T02:44:31.224Z,2.23
2018-01-10T02:45:30.962Z,2.2
2018-01-10T02:46:30.977Z,2.23
2018-01-10T02:47:31.527Z,2.18
2018-01-10T02:48:31.872Z,2.29
2018-01-10T02:49:31.446Z,2.23
2018-01-10T02:50:31.441Z,2.29
2018-01-10T02:51:31.875Z,2.38
2018-01-10T02:52:31.966Z,2.34
2018-01-10T02:53:32.090Z,2.36
2018-01-10T02:54:32.405Z,2.36
2018-01-10T02:55:32.158Z,2.34
2018-01-10T02:56:32.578Z,2.27
2018-01-10T02:57:32.725Z,2.33
2018-01-10T02:58:33.411Z,2.45
2018-01-10T02:59:33.536Z,2.31
2018-01-10T03:00:47.877Z,2.38
2018-01-10T03:01:33.350Z,2.34
2018-01-10T03:02:34.040Z,2.34
2018-01-10T03:03:33.833Z,2.34
2018-01-10T03:04:34.500Z,2.24
2018-01-10T03:05:34.889Z,2.3
2018-01-10T03:06:35.275Z,2.31
2018-01-10T03:07:35.671Z,2.34
2018-01-10T03:08:35.543Z,2.3
2018-01-10T03:09:35.809Z,2.34
2018-01-10T03:10:36.147Z,2.36
2018-01-10T03:11:35.869Z,2.33
2018-01-10T03:12:35.916Z,2.38
2018-01-10T03:13:36.370Z,2.33
2018-01-10T03:14:35.985Z,2.44
2018-01-10T03:15:36.624Z,2.41
2018-01-10T03:16:36.375Z,2.45
2018-01-10T03:17:37.025Z,2.47
2018-01-10T03:18:37.168Z,2.55
2018-01-10T03:19:37.610Z,2.59
2018-01-10T03:20:37.768Z,2.66
2018-01-10T03:21:38.190Z,2.69
2018-01-10T03:22:37.851Z,2.7
2018-01-10T03:23:38.126Z,2.69
2018-01-10T03:24:38.543Z,2.69
2018-01-10T03:25:38.094Z,2.69
2018-01-10T03:26:38.429Z,2.7
2018-01-10T03:27:38.633Z,2.73
2018-01-10T03:28:38.926Z,2.69
2018-01-10T03:29:39.081Z,2.72
2018-01-10T03:30:39.794Z,2.67
2018-01-10T03:31:39.771Z,2.72
2018-01-10T03:32:39.528Z,2.73
2018-01-10T03:33:39.968Z,2.73
2018-01-10T03:34:39.965Z,2.77
2018-01-10T03:35:39.624Z,2.76
2018-01-10T03:36:40.168Z,2.7
2018-01-10T03:37:40.606Z,2.76
2018-01-10T03:38:41.393Z,2.73
2018-01-10T03:39:40.429Z,2.73
2018-01-10T03:40:40.957Z,2.85
2018-01-10T03:41:41.150Z,2.72
2018-01-10T03:42:41.746Z,2.77
2018-01-10T03:43:42.186Z,2.8
2018-01-10T03:44:41.949Z,2.85
2018-01-10T03:45:41.731Z,2.87
2018-01-10T03:46:41.491Z,2.88
2018-01-10T03:47:42.041Z,2.83
2018-01-10T03:48:41.888Z,2.8
2018-01-10T03:49:41.231Z,2.9
2018-01-10T03:50:41.912Z,2.87
2018-01-10T03:51:41.691Z,2.84
2018-01-10T03:52:41.747Z,2.85
2018-01-10T03:53:41.775Z,2.88
2018-01-10T03:54:42.061Z,2.81
2018-01-10T03:55:42.530Z,2.87
2018-01-10T03:56:42.725Z,2.85
2018-01-10T03:57:42.726Z,2.87
2018-01-10T03:58:42.488Z,2.87
2018-01-10T03:59:43.168Z,2.83
2018-01-10T04:00:43.338Z,2.81
2018-01-10T04:01:43.255Z,2.81
2018-01-10T04:02:43.203Z,2.84
2018-01-10T04:03:43.434Z,2.87
2018-01-10T04:04:43.784Z,2.93
2018-01-10T04:05:43.814Z,2.83
2018-01-10T04:06:44.108Z,2.88
2018-01-10T04:07:43.531Z,2.93
2018-01-10T04:08:43.849Z,2.87
2018-01-10T04:09:43.943Z,2.85
2018-01-10T04:10:44.112Z,2.85
2018-01-10T04:11:44.538Z,2.9
2018-01-10T04:12:44.657Z,2.84
2018-01-10T04:13:44.942Z,2.88
2018-01-10T04:14:44.973Z,2.87
2018-01-10T04:15:45.365Z,2.85
2018-01-10T04:16:45.449Z,2.93
2018-01-10T04:17:45.817Z,2.9
2018-01-10T04:18:46.198Z,2.91
2018-01-10T04:19:46.021Z,2.9
2018-01-10T04:20:46.249Z,2.98
2018-01-10T04:21:46.318Z,2.85
2018-01-10T04:22:46.534Z,2.88
2018-01-10T04:23:46.487Z,2.85
2018-01-10T04:24:46.929Z,2.88
2018-01-10T04:25:47.164Z,3.01
2018-01-10T04:26:46.958Z,2.96
2018-01-10T04:27:47.230Z,2.95
2018-01-10T04:28:46.956Z,3.01
2018-01-10T04:29:47.642Z,3.01
2018-01-10T04:30:47.637Z,2.99
2018-01-10T04:31:47.710Z,3.01
2018-01-10T04:32:48.149Z,3.01
2018-01-10T04:33:47.934Z,2.95
2018-01-10T04:34:48.641Z,2.96
2018-01-10T04:35:48.314Z,2.95
2018-01-10T04:36:47.944Z,2.96
2018-01-10T04:37:48.573Z,3.01
2018-01-10T04:38:48.192Z,2.99
2018-01-10T04:39:48.502Z,2.98
2018-01-10T04:40:48.930Z,2.95
2018-01-10T04:41:49.059Z,2.96
2018-01-10T04:42:49.918Z,2.99
2018-01-10T04:43:49.763Z,2.93
2018-01-10T04:44:50.140Z,2.98
2018-01-10T04:45:49.266Z,2.98
2018-01-10T04:46:49.621Z,3.05
2018-01-10T04:47:50.087Z,3.02
2018-01-10T04:48:49.894Z,2.98
2018-01-10T04:49:50.451Z,2.96
2018-01-10T04:50:50.930Z,3.03
2018-01-10T04:51:51.192Z,2.96
2018-01-10T04:52:51.365Z,2.93
2018-01-10T04:53:51.402Z,2.99
2018-01-10T04:54:51.732Z,2.95
2018-01-10T04:55:51.673Z,3.02
2018-01-10T04:56:51.901Z,3.02
2018-01-10T04:57:52.265Z,2.93
2018-01-10T04:58:52.607Z,2.93
2018-01-10T04:59:52.223Z,3.01
2018-01-10T05:00:52.984Z,2.99
2018-01-10T05:01:52.271Z,2.95
2018-01-10T05:02:52.352Z,2.98
2018-01-10T05:03:53.691Z,3.01
2018-01-10T05:04:53.291Z,2.98
2018-01-10T05:05:53.206Z,2.99
2018-01-10T05:06:52.975Z,2.87
2018-01-10T05:07:54.621Z,2.87
2018-01-10T05:08:53.754Z,2.85
2018-01-10T05:09:53.496Z,2.85
2018-01-10T05:10:53.782Z,2.85
2018-01-10T05:11:54.029Z,2.87
2018-01-10T05:12:54.553Z,2.87
2018-01-10T05:13:54.354Z,2.85
2018-01-10T05:14:54.087Z,2.83
2018-01-10T05:15:54.483Z,2.84
2018-01-10T05:16:54.248Z,2.95
2018-01-10T05:17:54.538Z,2.87
2018-01-10T05:18:55.064Z,2.87
2018-01-10T05:19:55.027Z,2.84
2018-01-10T05:20:55.265Z,2.87
2018-01-10T05:21:55.368Z,2.84
2018-01-10T05:22:55.447Z,2.84
2018-01-10T05:23:55.846Z,2.73
2018-01-10T05:24:56.005Z,2.81
2018-01-10T05:25:56.273Z,2.8
2018-01-10T05:26:56.296Z,2.77
2018-01-10T05:27:56.062Z,2.77
2018-01-10T05:28:56.431Z,2.67
2018-01-10T05:29:56.561Z,2.72
2018-01-10T05:30:56.433Z,2.73
2018-01-10T05:31:57.001Z,2.73
2018-01-10T05:32:57.033Z,2.67
2018-01-10T05:33:56.790Z,2.65
2018-01-10T05:34:56.771Z,2.7
2018-01-10T05:35:56.961Z,2.67
2018-01-10T05:36:56.956Z,2.7
2018-01-10T05:37:57.363Z,2.65
2018-01-10T05:38:57.134Z,2.67
2018-01-10T05:39:57.730Z,2.69
2018-01-10T05:40:57.638Z,2.73
2018-01-10T05:41:59.592Z,2.67
2018-01-10T05:42:58.478Z,2.58
2018-01-10T05:43:58.643Z,2.55
2018-01-10T05:44:58.248Z,2.63
2018-01-10T05:45:59.548Z,2.58
2018-01-10T05:46:58.888Z,2.58
2018-01-10T05:47:58.884Z,2.55
2018-01-10T05:48:58.650Z,2.55
2018-01-10T05:49:59.118Z,2.6
2018-01-10T05:50:58.991Z,2.58
2018-01-10T05:51:59.181Z,2.58
2018-01-10T05:52:59.028Z,2.6
2018-01-10T05:53:59.314Z,2.58
2018-01-10T05:54:59.276Z,2.58
2018-01-10T05:55:59.533Z,2.52
2018-01-10T05:56:59.003Z,2.51
2018-01-10T05:57:59.135Z,2.49
2018-01-10T05:58:59.199Z,2.48
2018-01-10T05:59:59.745Z,2.44
2018-01-10T06:00:59.817Z,2.52
2018-01-10T06:01:59.900Z,2.49
2018-01-10T06:03:00.661Z,2.47
2018-01-10T06:04:00.027Z,2.49
2018-01-10T06:04:59.741Z,2.48
2018-01-10T06:06:00.114Z,2.42
2018-01-10T06:06:59.689Z,2.41
2018-01-10T06:08:00.101Z,2.44
2018-01-10T06:08:59.542Z,2.44
2018-01-10T06:09:59.844Z,2.44
2018-01-10T06:11:00.514Z,2.36
2018-01-10T06:12:00.159Z,2.34
2018-01-10T06:13:00.222Z,2.44
2018-01-10T06:14:00.871Z,2.44
2018-01-10T06:15:00.889Z,2.33
2018-01-10T06:16:00.908Z,2.44
2018-01-10T06:17:00.406Z,2.41
2018-01-10T06:18:00.690Z,2.44
2018-01-10T06:19:00.847Z,2.33
2018-01-10T06:20:00.496Z,2.4
2018-01-10T06:21:01.066Z,2.36
2018-01-10T06:22:01.114Z,2.48
2018-01-10T06:23:01.145Z,2.34
2018-01-10T06:24:00.832Z,2.31
2018-01-10T06:25:01.553Z,2.33
2018-01-10T06:26:01.893Z,2.33
2018-01-10T06:27:02.018Z,2.31
2018-01-10T06:28:02.036Z,2.31
2018-01-10T06:29:02.916Z,2.36
2018-01-10T06:30:02.625Z,2.27
2018-01-10T06:31:01.191Z,2.29
2018-01-10T06:32:02.117Z,2.3
2018-01-10T06:33:02.049Z,2.41
2018-01-10T06:34:03.360Z,2.33
2018-01-10T06:35:03.020Z,2.36
2018-01-10T06:36:01.632Z,2.36
2018-01-10T06:37:02.458Z,2.31
2018-01-10T06:38:03.236Z,2.41
2018-01-10T06:39:02.196Z,2.44
2018-01-10T06:40:02.268Z,2.34
2018-01-10T06:41:02.272Z,2.41
2018-01-10T06:42:02.332Z,2.42
2018-01-10T06:43:02.676Z,2.45
2018-01-10T06:44:02.814Z,2.44
2018-01-10T06:45:02.073Z,2.41
2018-01-10T06:46:02.509Z,2.41
2018-01-10T06:47:02.382Z,2.47
2018-01-10T06:48:03.143Z,2.44
2018-01-10T06:49:03.053Z,2.44
2018-01-10T06:50:03.060Z,2.47
2018-01-10T06:51:03.514Z,2.44
2018-01-10T06:52:03.821Z,2.34
2018-01-10T06:53:04.656Z,2.38
2018-01-10T06:54:04.113Z,2.42
2018-01-10T06:55:04.609Z,2.42
2018-01-10T06:56:03.814Z,2.44
2018-01-10T06:57:05.123Z,2.44
2018-01-10T06:58:04.345Z,2.42
2018-01-10T06:59:04.165Z,2.44
2018-01-10T07:00:18.553Z,2.44
2018-01-10T07:01:05.033Z,2.42
2018-01-10T07:02:05.226Z,2.42
2018-01-10T07:03:04.212Z,2.42
2018-01-10T07:04:05.983Z,2.42
2018-01-10T07:05:04.722Z,2.36
2018-01-10T07:06:06.276Z,2.44
2018-01-10T07:07:06.310Z,2.4
2018-01-10T07:08:06.519Z,2.33
2018-01-10T07:09:06.189Z,2.31
2018-01-10T07:10:05.189Z,2.33
2018-01-10T07:11:06.056Z,2.31
2018-01-10T07:12:06.323Z,2.3
2018-01-10T07:13:06.938Z,2.33
2018-01-10T07:14:04.757Z,2.33
2018-01-10T07:15:05.092Z,2.33
2018-01-10T07:16:05.199Z,2.3
2018-01-10T07:17:05.097Z,2.38
2018-01-10T07:18:05.300Z,2.33
2018-01-10T07:19:05.558Z,2.44
2018-01-10T07:20:06.000Z,2.31
2018-01-10T07:21:05.576Z,2.34
2018-01-10T07:22:05.947Z,2.42
2018-01-10T07:23:05.961Z,2.42
2018-01-10T07:24:06.071Z,2.42
2018-01-10T07:25:05.752Z,2.44
2018-01-10T07:26:05.951Z,2.42
2018-01-10T07:27:06.396Z,2.48
2018-01-10T07:28:06.626Z,2.47
2018-01-10T07:29:06.477Z,2.42
2018-01-10T07:30:06.162Z,2.47
2018-01-10T07:31:06.488Z,2.44
2018-01-10T07:32:08.186Z,2.4
2018-01-10T07:33:07.108Z,2.48
2018-01-10T07:34:07.441Z,2.59
2018-01-10T07:35:06.968Z,2.59
2018-01-10T07:36:07.188Z,2.59
2018-01-10T07:37:06.951Z,2.69
2018-01-10T07:38:07.224Z,2.7
2018-01-10T07:39:08.613Z,2.66
2018-01-10T07:40:07.514Z,2.67
2018-01-10T07:41:07.854Z,2.7
2018-01-10T07:42:07.989Z,2.73
2018-01-10T07:43:07.568Z,2.67
2018-01-10T07:44:07.427Z,2.54
2018-01-10T07:45:07.494Z,2.59
2018-01-10T07:46:08.868Z,2.6
2018-01-10T07:47:07.164Z,2.54
2018-01-10T07:48:07.245Z,2.63
2018-01-10T07:49:09.297Z,2.51
2018-01-10T07:50:10.156Z,2.58
2018-01-10T07:51:08.104Z,2.51
2018-01-10T07:52:08.931Z,2.47
2018-01-10T07:53:08.600Z,2.55
2018-01-10T07:54:09.156Z,2.48
2018-01-10T07:55:10.546Z,2.49
2018-01-10T07:56:09.367Z,2.44
2018-01-10T07:57:09.429Z,2.54
2018-01-10T07:58:10.263Z,2.52
2018-01-10T07:59:10.473Z,2.49
2018-01-10T08:00:25.451Z,2.45
2018-01-10T08:01:25.034Z,2.42
2018-01-10T08:02:26.046Z,2.51
2018-01-10T08:03:26.381Z,2.58
2018-01-10T08:04:25.891Z,2.66
2018-01-10T08:05:25.930Z,2.6
2018-01-10T08:06:25.961Z,2.58
2018-01-10T08:07:26.202Z,2.55
2018-01-10T08:08:26.245Z,2.47
2018-01-10T08:09:26.554Z,2.45
2018-01-10T08:10:26.031Z,2.55
2018-01-10T08:11:26.264Z,2.51
2018-01-10T08:12:28.069Z,2.58
2018-01-10T08:13:26.684Z,2.58
2018-01-10T08:14:28.141Z,2.54
2018-01-10T08:15:27.116Z,2.6
2018-01-10T08:16:27.563Z,2.59
2018-01-10T08:17:28.055Z,2.48
2018-01-10T08:18:28.432Z,2.58
2018-01-10T08:19:27.669Z,2.48
2018-01-10T08:20:28.714Z,2.45
2018-01-10T08:21:28.580Z,2.47
2018-01-10T08:22:28.850Z,2.47
2018-01-10T08:23:28.944Z,2.4
2018-01-10T08:24:28.086Z,2.44
2018-01-10T08:25:28.814Z,2.44
2018-01-10T08:26:29.448Z,2.42
2018-01-10T08:27:30.342Z,2.38
2018-01-10T08:28:30.197Z,2.44
2018-01-10T08:29:29.228Z,2.41
2018-01-10T08:30:28.772Z,2.44
2018-01-10T08:31:30.663Z,2.49
2018-01-10T08:32:31.055Z,2.58
2018-01-10T08:33:30.610Z,2.51
2018-01-10T08:34:30.316Z,2.67
2018-01-10T08:35:30.300Z,2.7
2018-01-10T08:36:30.448Z,2.59
2018-01-10T08:37:31.124Z,2.72
2018-01-10T08:38:31.018Z,2.7
2018-01-10T08:39:30.746Z,2.8
2018-01-10T08:40:30.107Z,2.84
2018-01-10T08:41:31.600Z,2.7
2018-01-10T08:42:31.272Z,2.66
2018-01-10T08:43:30.586Z,2.66
2018-01-10T08:44:30.961Z,2.63
2018-01-10T08:45:30.939Z,2.69
2018-01-10T08:46:31.052Z,2.7
2018-01-10T08:47:31.722Z,2.63
2018-01-10T08:48:32.090Z,2.73
2018-01-10T08:49:31.481Z,2.73
2018-01-10T08:50:31.410Z,2.77
2018-01-10T08:51:37.926Z,2.72
2018-01-10T08:52:37.929Z,2.85
2018-01-10T08:53:38.081Z,2.8
2018-01-10T08:54:37.444Z,2.93
2018-01-10T08:55:37.687Z,2.9
2018-01-10T08:56:36.508Z,2.85
2018-01-10T08:57:37.979Z,2.99
2018-01-10T08:58:37.425Z,2.96
2018-01-10T08:59:37.743Z,3.02
2018-01-10T09:00:37.542Z,3.05
2018-01-10T09:01:37.992Z,2.95
2018-01-10T09:02:38.219Z,3.09
2018-01-10T09:03:38.193Z,3.06
2018-01-10T09:04:38.165Z,3.06
2018-01-10T09:05:51.739Z,3.11
2018-01-10T09:06:36.945Z,3.09
2018-01-10T09:07:37.970Z,3.16
2018-01-10T09:08:38.190Z,3.14
2018-01-10T09:09:38.927Z,3.16
2018-01-10T09:10:37.874Z,3.13
2018-01-10T09:11:38.805Z,3.29
2018-01-10T09:12:38.884Z,3.32
2018-01-10T09:13:38.934Z,3.2
2018-01-10T09:14:39.015Z,3.35
2018-01-10T09:15:37.365Z,3.24
2018-01-10T09:16:37.801Z,3.2
2018-01-10T09:17:37.795Z,3.3
2018-01-10T09:18:38.701Z,3.42
2018-01-10T09:19:37.691Z,3.43
2018-01-10T09:20:38.592Z,3.48
2018-01-10T09:21:38.041Z,3.51
2018-01-10T09:22:39.108Z,3.53
2018-01-10T09:23:38.381Z,3.61
2018-01-10T09:24:38.364Z,3.61
2018-01-10T09:25:38.681Z,3.76
2018-01-10T09:26:39.278Z,3.74
2018-01-10T09:27:38.855Z,3.64
2018-01-10T09:28:38.803Z,3.64
2018-01-10T09:29:39.308Z,3.63
2018-01-10T09:30:39.917Z,3.63
2018-01-10T09:31:39.945Z,3.57
2018-01-10T09:32:39.351Z,3.6
2018-01-10T09:33:39.743Z,3.49
2018-01-10T09:34:38.973Z,3.54
2018-01-10T09:35:38.769Z,3.61
2018-01-10T09:36:39.744Z,3.61
2018-01-10T09:37:40.265Z,3.64
2018-01-10T09:38:40.111Z,3.58
2018-01-10T09:39:40.370Z,3.63
2018-01-10T09:40:39.439Z,3.66
2018-01-10T09:41:39.751Z,3.67
2018-01-10T09:42:40.100Z,3.81
2018-01-10T09:43:40.645Z,3.86
2018-01-10T09:44:40.432Z,3.86
2018-01-10T09:45:40.576Z,3.94
2018-01-10T09:46:41.068Z,3.92
2018-01-10T09:47:41.947Z,3.94
2018-01-10T09:48:41.387Z,3.94
2018-01-10T09:49:42.049Z,3.92
2018-01-10T09:50:41.702Z,3.96
2018-01-10T09:51:41.637Z,3.94
2018-01-10T09:52:41.365Z,4.08
2018-01-10T09:53:41.725Z,4.08
2018-01-10T09:54:43.255Z,4.17
2018-01-10T09:55:44.261Z,4.17
2018-01-10T09:56:43.797Z,4.28
2018-01-10T09:57:43.592Z,4.26
2018-01-10T09:58:44.206Z,4.29
2018-01-10T09:59:44.300Z,4.17
2018-01-10T10:00:43.375Z,4.2
2018-01-10T10:01:44.095Z,4.15
2018-01-10T10:02:44.244Z,4.03
2018-01-10T10:03:44.432Z,3.97
2018-01-10T10:04:44.096Z,3.86
2018-01-10T10:05:44.228Z,3.85
2018-01-10T10:06:43.241Z,3.75
2018-01-10T10:07:43.734Z,3.79
2018-01-10T10:08:43.499Z,3.76
2018-01-10T10:09:44.389Z,3.72
2018-01-10T10:10:43.906Z,3.71
2018-01-10T10:11:43.638Z,3.9
2018-01-10T10:12:44.492Z,3.93
2018-01-10T10:13:43.178Z,3.96
2018-01-10T10:14:43.786Z,4.14
2018-01-10T10:15:44.365Z,4.21
2018-01-10T10:16:43.519Z,4.32
2018-01-10T10:17:43.072Z,4.39
2018-01-10T10:18:43.195Z,4.33
2018-01-10T10:19:43.278Z,4.32
2018-01-10T10:20:44.193Z,4.29
2018-01-10T10:21:43.980Z,4.18
2018-01-10T10:22:44.644Z,4.26
2018-01-10T10:23:44.621Z,4.24
2018-01-10T10:24:44.032Z,4.18
2018-01-10T10:25:43.490Z,4.22
2018-01-10T10:26:43.812Z,4.15
2018-01-10T10:27:44.032Z,4.11
2018-01-10T10:28:44.024Z,4.15
2018-01-10T10:29:43.227Z,4.14
2018-01-10T10:30:44.067Z,4.08
2018-01-10T10:31:44.502Z,3.92
2018-01-10T10:32:44.083Z,4.07
2018-01-10T10:33:44.364Z,4.07
2018-01-10T10:34:44.314Z,4.2
2018-01-10T10:35:44.223Z,4.39
2018-01-10T10:36:44.131Z,4.47
2018-01-10T10:37:44.557Z,4.53
2018-01-10T10:38:45.712Z,4.58
2018-01-10T10:39:45.792Z,4.68
2018-01-10T10:40:45.600Z,4.69
2018-01-10T10:41:46.664Z,4.76
2018-01-10T10:42:46.265Z,4.85
2018-01-10T10:43:46.771Z,4.85
2018-01-10T10:44:46.555Z,5.02
2018-01-10T10:45:46.588Z,5.13
2018-01-10T10:46:46.910Z,5.16
2018-01-10T10:47:47.201Z,5.16
2018-01-10T10:48:46.884Z,5.15
2018-01-10T10:49:47.209Z,5.23
2018-01-10T10:50:46.488Z,5.2
2018-01-10T10:51:46.753Z,5.27
2018-01-10T10:52:47.387Z,5.26
2018-01-10T10:54:47.291Z,5.34
2018-01-10T10:55:46.396Z,5.36
2018-01-10T10:56:46.812Z,5.28
2018-01-10T10:57:46.632Z,5.28
2018-01-10T10:58:47.129Z,5.18
2018-01-10T10:59:46.686Z,5.26
2018-01-10T11:00:46.444Z,5.21
2018-01-10T11:01:45.992Z,5.36
2018-01-10T11:02:46.703Z,5.28
2018-01-10T11:03:46.192Z,5.33
2018-01-10T11:04:45.929Z,5.36
2018-01-10T11:05:46.424Z,5.36
2018-01-10T11:06:47.028Z,5.36
2018-01-10T11:07:46.912Z,5.44
2018-01-10T11:08:47.591Z,5.44
2018-01-10T11:09:46.505Z,5.42
2018-01-10T11:10:47.932Z,5.46
2018-01-10T11:11:47.336Z,5.48
2018-01-10T11:13:01.778Z,5.57
2018-01-10T11:13:48.596Z,5.66
2018-01-10T11:14:47.940Z,5.59
2018-01-10T11:15:47.595Z,5.75
2018-01-10T11:16:47.425Z,5.64
2018-01-10T11:17:48.567Z,5.62
2018-01-10T11:18:48.024Z,5.6
2018-01-10T11:19:47.345Z,5.57
2018-01-10T11:20:47.189Z,5.62
2018-01-10T11:21:47.379Z,5.73
2018-01-10T11:22:48.558Z,5.8
2018-01-10T11:23:48.158Z,5.82
2018-01-10T11:24:47.487Z,5.88
2018-01-10T11:25:49.988Z,5.99
2018-01-10T11:26:50.155Z,6.02
2018-01-10T11:27:50.117Z,6.05
2018-01-10T11:29:03.927Z,6.07
2018-01-10T11:29:50.263Z,6.14
2018-01-10T11:30:49.969Z,6.09
2018-01-10T11:31:49.914Z,6.03
2018-01-10T11:33:49.863Z,6.13
2018-01-10T11:34:50.012Z,6.21
2018-01-10T11:35:50.428Z,6.09
2018-01-10T11:36:51.059Z,6.09
2018-01-10T11:37:50.411Z,6
2018-01-10T11:38:50.508Z,5.98
2018-01-10T11:39:50.121Z,5.91
2018-01-10T11:40:49.396Z,5.99
2018-01-10T11:41:50.835Z,6.05
2018-01-10T11:43:03.476Z,6.1
2018-01-10T11:43:49.095Z,6.15
2018-01-10T11:44:49.466Z,6.21
2018-01-10T11:45:48.771Z,6.37
2018-01-10T11:46:49.540Z,6.43
2018-01-10T11:47:50.771Z,6.52
2018-01-10T11:48:50.448Z,6.47
2018-01-10T11:49:50.119Z,6.58
2018-01-10T11:50:49.554Z,6.6
2018-01-10T11:51:49.728Z,6.6
2018-01-10T11:53:04.264Z,6.54
2018-01-10T11:53:49.732Z,6.54
2018-01-10T11:54:49.534Z,6.46
2018-01-10T11:55:49.726Z,6.29
2018-01-10T11:56:50.265Z,6.33
2018-01-10T11:57:50.333Z,6.4
2018-01-10T11:58:52.342Z,6.49
2018-01-10T12:00:50.174Z,6.42
2018-01-10T12:01:50.398Z,6.42
2018-01-10T12:02:50.163Z,6.42
2018-01-10T12:03:51.534Z,6.37
2018-01-10T12:04:50.936Z,6.42
2018-01-10T12:05:51.376Z,6.21
2018-01-10T12:06:50.261Z,6.25
2018-01-10T12:07:51.006Z,6.14
2018-01-10T12:08:50.955Z,6.14
2018-01-10T12:09:51.377Z,6.05
2018-01-10T12:10:51.156Z,5.92
2018-01-10T12:11:50.790Z,5.89
2018-01-10T12:12:51.482Z,5.92
2018-01-10T12:13:51.546Z,5.96
2018-01-10T12:14:53.446Z,5.98
2018-01-10T12:16:08.092Z,5.87
2018-01-10T12:16:53.285Z,5.85
2018-01-10T12:17:53.777Z,5.8
2018-01-10T12:18:53.368Z,5.72
2018-01-10T12:19:53.218Z,5.69
2018-01-10T12:20:53.801Z,5.6
2018-01-10T12:21:53.372Z,5.63
2018-01-10T12:22:53.831Z,5.69
2018-01-10T12:23:53.277Z,5.77
2018-01-10T12:24:53.899Z,5.8
2018-01-10T12:25:53.446Z,5.87
2018-01-10T12:26:54.293Z,5.85
2018-01-10T12:27:53.734Z,5.88
2018-01-10T12:28:53.289Z,6
2018-01-10T12:29:53.919Z,5.98
2018-01-10T12:30:53.587Z,5.87
2018-01-10T12:31:55.295Z,5.85
2018-01-10T12:32:54.421Z,5.82
2018-01-10T12:33:54.714Z,5.73
2018-01-10T12:34:55.675Z,5.73
2018-01-10T12:35:55.487Z,5.69
2018-01-10T12:36:55.541Z,5.59
2018-01-10T12:37:55.075Z,5.64
2018-01-10T12:38:54.966Z,5.69
2018-01-10T12:39:55.182Z,5.66
2018-01-10T12:40:55.528Z,5.62
2018-01-10T12:41:55.476Z,5.66
2018-01-10T12:42:55.613Z,5.64
2018-01-10T12:43:56.512Z,5.66
2018-01-10T12:44:56.539Z,5.57
2018-01-10T12:45:57.500Z,5.57
2018-01-10T12:46:57.128Z,5.51
2018-01-10T12:47:57.064Z,5.45
2018-01-10T12:48:56.659Z,5.36
2018-01-10T12:49:57.054Z,5.31
2018-01-10T12:50:56.886Z,5.31
2018-01-10T12:51:57.974Z,5.31
2018-01-10T12:52:58.165Z,5.24
2018-01-10T12:53:57.974Z,5.27
2018-01-10T12:55:12.246Z,5.21
2018-01-10T12:55:57.497Z,5.1
2018-01-10T12:56:57.921Z,5.1
2018-01-10T12:57:58.040Z,5.06
2018-01-10T12:58:57.314Z,5.06
2018-01-10T12:59:57.602Z,5.02
2018-01-10T13:00:57.158Z,5.08
2018-01-10T13:01:56.937Z,5.06
2018-01-10T13:02:56.795Z,5.09
2018-01-10T13:03:56.819Z,5.03
2018-01-10T13:04:56.783Z,5.09
2018-01-10T13:05:56.690Z,5.03
2018-01-10T13:06:57.101Z,5.05
2018-01-10T13:07:58.321Z,5
2018-01-10T13:08:58.024Z,5.08
2018-01-10T13:09:57.339Z,5.05
2018-01-10T13:10:58.673Z,5
2018-01-10T13:11:58.101Z,5.08
2018-01-10T13:12:58.788Z,5.06
2018-01-10T13:13:58.815Z,5.08
2018-01-10T13:14:58.710Z,5.03
2018-01-10T13:15:58.805Z,5.02
2018-01-10T13:16:58.866Z,5.05
2018-01-10T13:17:58.832Z,5.05
2018-01-10T13:18:58.887Z,5.08
2018-01-10T13:19:58.980Z,5.1
2018-01-10T13:20:58.857Z,5.02
2018-01-10T13:21:58.948Z,5.05
2018-01-10T13:22:58.821Z,5.16
2018-01-10T13:23:58.885Z,5.13
2018-01-10T13:24:58.854Z,5.18
2018-01-10T13:25:58.830Z,5.23
2018-01-10T13:26:59.026Z,5.21